Time;durP1;ratioP1;P1;durP2;ratioP2;P2;SDS_P1;SDS_P2;PMS_P1;PMS_P2;Temp;Humidity;BMP_temperature;BMP_pressure;BME280_temperature;BME280_humidity;BME280_pressure;Samples;Min_cycle;Max_cycle;Signal;HPM_P1;HPM_P2
2023/01/16 00:00:14;;;;;;;4.10;2.13;;;4.30;99.90;;;;;;5054263;28;20452;-55
2023/01/16 00:02:41;;;;;;;4.20;1.80;;;4.30;99.90;;;;;;5053947;28;20492;-55
2023/01/16 00:05:09;;;;;;;2.17;1.67;;;4.30;99.90;;;;;;5053828;28;20481;-54
2023/01/16 00:07:36;;;;;;;6.10;1.80;;;4.40;99.90;;;;;;5054249;28;20480;-55
2023/01/16 00:10:06;;;;;;;3.23;1.90;;;4.40;99.90;;;;;;5054159;28;20822;-54
2023/01/16 00:12:33;;;;;;;4.00;1.80;;;4.40;99.90;;;;;;5054402;28;20441;-54
2023/01/16 00:15:00;;;;;;;1.87;1.50;;;4.50;99.90;;;;;;5053044;28;20445;-54
2023/01/16 00:17:27;;;;;;;3.37;1.60;;;4.50;99.90;;;;;;5053760;28;20532;-54
2023/01/16 00:19:54;;;;;;;1.50;1.40;;;4.50;99.90;;;;;;5053689;28;20445;-54
2023/01/16 00:22:22;;;;;;;4.00;1.67;;;4.60;99.90;;;;;;5053954;28;20525;-55
2023/01/16 00:24:48;;;;;;;3.27;1.60;;;4.60;99.90;;;;;;5053798;28;20876;-54
2023/01/16 00:27:17;;;;;;;2.40;1.60;;;4.60;99.90;;;;;;5053772;28;20499;-54
2023/01/16 00:29:44;;;;;;;2.03;1.83;;;4.70;99.90;;;;;;5053813;28;20448;-54
2023/01/16 00:32:11;;;;;;;3.33;1.93;;;4.70;99.90;;;;;;5053862;28;20449;-54
2023/01/16 00:34:38;;;;;;;3.73;2.03;;;4.70;99.90;;;;;;5053656;28;20469;-54
2023/01/16 00:37:05;;;;;;;2.00;1.80;;;4.70;99.90;;;;;;5053802;28;20449;-54
2023/01/16 00:39:32;;;;;;;2.43;1.63;;;4.60;99.90;;;;;;5053478;28;20452;-54
2023/01/16 00:41:59;;;;;;;4.73;1.67;;;4.70;99.90;;;;;;5053726;28;20476;-55
2023/01/16 00:44:27;;;;;;;1.80;1.70;;;4.60;99.90;;;;;;5053573;28;20487;-55
2023/01/16 00:46:54;;;;;;;2.80;1.93;;;4.70;99.90;;;;;;5053627;28;20446;-54
2023/01/16 00:49:21;;;;;;;3.97;1.63;;;4.70;99.90;;;;;;5053609;28;20506;-54
2023/01/16 00:51:49;;;;;;;2.10;1.90;;;4.70;99.90;;;;;;5053515;28;20453;-54
2023/01/16 00:54:16;;;;;;;2.17;1.97;;;4.70;99.90;;;;;;5052807;28;20481;-54
2023/01/16 00:56:43;;;;;;;2.03;1.63;;;4.70;99.90;;;;;;5053145;28;20449;-54
2023/01/16 00:59:11;;;;;;;2.70;1.90;;;4.70;99.90;;;;;;5053564;28;20453;-54
2023/01/16 01:01:39;;;;;;;6.20;1.80;;;4.60;99.90;;;;;;5053447;28;20472;-55
2023/01/16 01:04:06;;;;;;;5.73;1.80;;;4.60;99.90;;;;;;5053353;28;20492;-54
2023/01/16 01:06:34;;;;;;;5.97;2.60;;;4.60;99.90;;;;;;5053417;28;20531;-54
2023/01/16 01:09:01;;;;;;;2.17;1.70;;;4.60;99.90;;;;;;5053180;28;20441;-54
2023/01/16 01:11:28;;;;;;;2.23;1.90;;;4.50;99.90;;;;;;5053317;28;20457;-54
2023/01/16 01:13:55;;;;;;;3.53;1.97;;;4.50;99.90;;;;;;5053035;28;20963;-54
2023/01/16 01:16:22;;;;;;;3.90;1.93;;;4.50;99.90;;;;;;5053325;28;20518;-55
2023/01/16 01:18:51;;;;;;;4.47;2.20;;;4.50;99.90;;;;;;5053380;28;20445;-54
2023/01/16 01:21:18;;;;;;;2.33;1.70;;;4.50;99.90;;;;;;5053004;28;20843;-55
2023/01/16 01:23:45;;;;;;;2.80;1.83;;;4.40;99.90;;;;;;5053188;28;20484;-55
2023/01/16 01:26:15;;;;;;;2.50;1.90;;;4.40;99.90;;;;;;5055060;28;20808;-54
2023/01/16 01:28:42;;;;;;;2.47;2.27;;;4.40;99.90;;;;;;5057245;28;20445;-54
2023/01/16 01:31:11;;;;;;;3.43;2.07;;;4.40;99.90;;;;;;5057107;28;20452;-55
2023/01/16 01:33:39;;;;;;;6.57;2.73;;;4.40;99.90;;;;;;5057390;28;20465;-54
2023/01/16 01:36:08;;;;;;;1.60;1.50;;;4.40;99.90;;;;;;5057052;28;20449;-54
2023/01/16 01:38:36;;;;;;;3.90;2.00;;;4.40;99.90;;;;;;5057084;28;20844;-54
2023/01/16 01:41:03;;;;;;;5.10;1.80;;;4.40;99.90;;;;;;5056985;28;20454;-55
2023/01/16 01:43:42;;;;;;;2.13;1.90;;;4.40;99.90;;;;;;5056925;28;20468;-55
2023/01/16 01:46:19;;;;;;;2.17;1.80;;;4.40;99.90;;;;;;5056674;28;20462;-54
2023/01/16 01:48:48;;;;;;;1.80;1.67;;;4.50;99.90;;;;;;5056920;28;20465;-54
2023/01/16 01:51:19;;;;;;;5.57;1.80;;;4.50;99.90;;;;;;5056744;28;20441;-54
2023/01/16 01:53:51;;;;;;;2.40;1.70;;;4.50;99.90;;;;;;5056713;28;20512;-55
2023/01/16 01:56:24;;;;;;;3.63;1.50;;;4.50;99.90;;;;;;5056720;28;20433;-55
2023/01/16 01:58:57;;;;;;;1.73;1.53;;;4.40;99.90;;;;;;5056647;28;20429;-54
2023/01/16 02:01:25;;;;;;;2.83;1.60;;;4.40;99.90;;;;;;5056438;28;20964;-54
2023/01/16 02:03:58;;;;;;;9.77;2.27;;;4.40;99.90;;;;;;5056411;28;20457;-55
2023/01/16 02:06:31;;;;;;;5.40;2.10;;;4.30;99.90;;;;;;5056642;28;20433;-55
2023/01/16 02:08:58;;;;;;;1.70;1.60;;;4.30;99.90;;;;;;5056524;28;20491;-55
2023/01/16 02:11:32;;;;;;;4.00;1.83;;;4.30;99.90;;;;;;5056184;28;20449;-54
2023/01/16 02:14:01;;;;;;;2.10;1.70;;;4.20;99.90;;;;;;5056017;28;20475;-55
2023/01/16 02:19:18;;;;;;;2.07;1.70;;;4.20;99.90;;;;;;5056253;28;20409;-56
2023/01/16 02:22:19;;;;;;;3.07;2.27;;;4.10;99.90;;;;;;5056265;28;20434;-54
2023/01/16 02:25:30;;;;;;;5.97;2.33;;;4.00;99.90;;;;;;5055747;28;20533;-55
2023/01/16 02:28:30;;;;;;;2.90;1.83;;;4.00;99.90;;;;;;5055965;28;20429;-54
2023/01/16 02:31:06;;;;;;;3.70;2.20;;;4.10;99.90;;;;;;5055739;28;20998;-54
2023/01/16 02:33:45;;;;;;;3.80;2.00;;;4.10;99.90;;;;;;5055648;28;20469;-54
2023/01/16 02:36:18;;;;;;;2.03;1.60;;;4.10;99.90;;;;;;5056085;28;20433;-56
2023/01/16 02:38:56;;;;;;;9.87;3.10;;;4.10;99.90;;;;;;5054863;28;20491;-54
2023/01/16 02:41:41;;;;;;;2.07;1.93;;;4.10;99.90;;;;;;5055958;28;20484;-54
2023/01/16 02:44:15;;;;;;;1.63;1.53;;;4.20;99.90;;;;;;5055484;28;20559;-54
2023/01/16 02:46:48;;;;;;;3.43;1.87;;;4.20;99.90;;;;;;5055748;28;20440;-54
2023/01/16 02:49:21;;;;;;;2.37;1.50;;;4.20;99.90;;;;;;5055518;28;20961;-55
2023/01/16 02:51:57;;;;;;;1.73;1.40;;;4.20;99.90;;;;;;5055756;28;20440;-56
2023/01/16 02:54:29;;;;;;;2.00;1.90;;;4.30;99.90;;;;;;5055301;28;20878;-54
2023/01/16 02:57:02;;;;;;;4.40;2.10;;;4.30;99.90;;;;;;5055635;28;20433;-54
2023/01/16 02:59:30;;;;;;;2.90;1.70;;;4.30;99.90;;;;;;5055523;28;20464;-54
2023/01/16 03:01:58;;;;;;;2.13;1.73;;;4.30;99.90;;;;;;5055552;28;20456;-54
2023/01/16 03:04:44;;;;;;;2.43;1.90;;;4.20;99.90;;;;;;5055256;28;20565;-55
2023/01/16 03:07:24;;;;;;;2.87;1.80;;;4.20;99.90;;;;;;5055446;28;20492;-55
2023/01/16 03:10:01;;;;;;;2.63;2.07;;;4.20;99.90;;;;;;5055412;28;20433;-55
2023/01/16 03:12:37;;;;;;;4.20;1.80;;;4.20;99.90;;;;;;5055355;28;20433;-54
2023/01/16 03:15:12;;;;;;;2.30;1.93;;;4.20;99.90;;;;;;5055331;28;20428;-54
2023/01/16 03:17:52;;;;;;;2.90;1.83;;;4.20;99.90;;;;;;5054955;28;20429;-55
2023/01/16 03:20:31;;;;;;;3.47;1.80;;;4.20;99.90;;;;;;5054857;28;20437;-54
2023/01/16 03:23:07;;;;;;;2.70;2.50;;;4.20;99.90;;;;;;5054929;28;20538;-55
2023/01/16 03:25:39;;;;;;;4.73;1.77;;;4.20;99.90;;;;;;5055072;28;20477;-55
2023/01/16 03:28:11;;;;;;;2.00;1.90;;;4.30;99.90;;;;;;5054917;28;20789;-55
2023/01/16 03:30:48;;;;;;;3.80;3.30;;;4.20;99.90;;;;;;5055028;28;20423;-55
2023/01/16 03:33:23;;;;;;;2.27;1.77;;;4.30;99.90;;;;;;5054502;28;20508;-56
2023/01/16 03:35:55;;;;;;;2.37;1.80;;;4.20;99.90;;;;;;5054582;28;20435;-54
2023/01/16 03:38:25;;;;;;;2.97;2.30;;;4.20;99.90;;;;;;5054844;28;20433;-54
2023/01/16 03:40:53;;;;;;;2.30;1.80;;;4.20;99.90;;;;;;5054466;28;20449;-55
2023/01/16 03:43:26;;;;;;;3.13;1.80;;;4.30;99.90;;;;;;5054319;28;20461;-55
2023/01/16 03:46:00;;;;;;;5.43;2.10;;;4.20;99.90;;;;;;5054580;28;20560;-55
2023/01/16 03:48:34;;;;;;;1.70;1.60;;;4.20;99.90;;;;;;5053940;28;20901;-54
2023/01/16 03:51:05;;;;;;;2.03;1.83;;;4.20;99.90;;;;;;5053759;28;20972;-54
2023/01/16 03:53:37;;;;;;;2.10;1.90;;;4.20;99.90;;;;;;5054121;28;20568;-54
2023/01/16 03:56:12;;;;;;;3.10;2.30;;;4.20;99.90;;;;;;5054438;28;20491;-54
2023/01/16 03:58:43;;;;;;;1.70;1.60;;;4.10;99.90;;;;;;5054133;28;20437;-54
2023/01/16 04:01:19;;;;;;;2.13;1.70;;;4.10;99.90;;;;;;5054363;28;20453;-54
2023/01/16 04:03:56;;;;;;;2.57;1.57;;;4.10;99.90;;;;;;5054300;28;20457;-55
2023/01/16 04:06:31;;;;;;;4.50;2.27;;;4.10;99.90;;;;;;5054289;28;20476;-54
2023/01/16 04:09:00;;;;;;;5.37;2.40;;;4.10;99.90;;;;;;5054256;28;20436;-54
2023/01/16 04:11:27;;;;;;;2.33;1.73;;;4.10;99.90;;;;;;5053921;28;20959;-54
2023/01/16 04:13:58;;;;;;;2.23;2.07;;;4.10;99.90;;;;;;5054047;28;20790;-54
2023/01/16 04:16:25;;;;;;;3.33;2.17;;;4.10;99.90;;;;;;5054139;28;20449;-55
2023/01/16 04:18:58;;;;;;;4.40;1.63;;;4.10;99.90;;;;;;5053734;28;20456;-54
2023/01/16 04:21:28;;;;;;;2.03;1.73;;;4.10;99.90;;;;;;5054112;28;20422;-54
2023/01/16 04:23:58;;;;;;;1.97;1.87;;;4.10;99.90;;;;;;5053903;28;20481;-54
2023/01/16 04:26:26;;;;;;;3.17;1.83;;;4.10;99.90;;;;;;5053634;28;20469;-54
2023/01/16 04:28:55;;;;;;;2.73;1.70;;;4.00;99.90;;;;;;5053761;28;20445;-55
2023/01/16 04:31:24;;;;;;;5.10;1.70;;;3.90;99.90;;;;;;5053890;28;20838;-55
2023/01/16 04:33:51;;;;;;;11.30;2.00;;;3.90;99.90;;;;;;5053728;28;20471;-55
2023/01/16 04:36:19;;;;;;;3.70;1.90;;;3.90;99.90;;;;;;5053857;28;20445;-54
2023/01/16 04:38:47;;;;;;;4.37;2.87;;;3.90;99.90;;;;;;5053683;28;20445;-55
2023/01/16 04:41:35;;;;;;;2.10;1.90;;;3.90;99.90;;;;;;5053747;28;20449;-55
2023/01/16 04:44:01;;;;;;;3.03;1.87;;;3.90;99.90;;;;;;5053288;28;20901;-55
2023/01/16 04:46:28;;;;;;;3.67;2.07;;;3.70;99.90;;;;;;5053186;28;20484;-55
2023/01/16 04:48:55;;;;;;;1.80;1.40;;;3.70;99.90;;;;;;5053612;28;20511;-55
2023/01/16 04:51:23;;;;;;;3.40;1.97;;;3.70;99.90;;;;;;5053204;28;20441;-54
2023/01/16 04:53:51;;;;;;;3.03;1.60;;;3.70;99.90;;;;;;5053228;28;20496;-54
2023/01/16 04:56:18;;;;;;;2.27;2.07;;;3.60;99.90;;;;;;5053155;28;20445;-54
2023/01/16 04:58:45;;;;;;;1.93;1.83;;;3.70;99.90;;;;;;5053087;28;20540;-54
2023/01/16 05:01:12;;;;;;;2.60;1.90;;;3.70;99.90;;;;;;5052757;28;20529;-54
2023/01/16 05:03:39;;;;;;;1.77;1.53;;;3.60;99.90;;;;;;5053430;28;20461;-54
2023/01/16 05:06:11;;;;;;;1.90;1.70;;;3.60;99.90;;;;;;5053081;28;20507;-55
2023/01/16 05:08:40;;;;;;;1.90;1.60;;;3.70;99.90;;;;;;5053404;28;20445;-54
2023/01/16 05:11:07;;;;;;;4.23;2.10;;;3.80;99.90;;;;;;5053368;28;20532;-54
2023/01/16 05:13:34;;;;;;;2.47;2.23;;;3.80;99.90;;;;;;5053344;28;20824;-54
2023/01/16 05:16:01;;;;;;;1.77;1.67;;;3.70;99.90;;;;;;5053038;28;20467;-56
2023/01/16 05:18:28;;;;;;;3.10;2.13;;;3.70;99.90;;;;;;5053298;28;20524;-54
2023/01/16 05:20:55;;;;;;;3.77;1.97;;;3.60;99.90;;;;;;5053465;28;20458;-54
2023/01/16 05:23:22;;;;;;;7.60;1.97;;;3.60;99.90;;;;;;5053051;28;20520;-54
2023/01/16 05:25:51;;;;;;;1.93;1.77;;;3.50;99.90;;;;;;5052859;28;20998;-54
2023/01/16 05:28:18;;;;;;;2.97;1.90;;;3.40;99.90;;;;;;5053147;28;20885;-55
2023/01/16 05:30:45;;;;;;;2.70;1.90;;;3.40;99.90;;;;;;5053277;28;20774;-54
2023/01/16 05:33:12;;;;;;;2.20;2.00;;;3.40;99.90;;;;;;5052994;28;20851;-54
2023/01/16 05:35:39;;;;;;;3.00;1.83;;;3.30;99.90;;;;;;5053195;28;20616;-55
2023/01/16 05:38:06;;;;;;;3.10;2.10;;;3.30;99.90;;;;;;5052770;28;20445;-54
2023/01/16 05:40:33;;;;;;;3.10;2.10;;;3.20;99.90;;;;;;5053173;28;20449;-54
2023/01/16 05:43:02;;;;;;;2.70;2.23;;;3.20;99.90;;;;;;5052605;28;20476;-54
2023/01/16 05:45:29;;;;;;;3.50;2.20;;;3.30;99.90;;;;;;5053047;28;20531;-55
2023/01/16 05:47:56;;;;;;;2.33;2.00;;;3.30;99.90;;;;;;5052715;28;20488;-54
2023/01/16 05:50:24;;;;;;;2.53;2.07;;;3.30;99.90;;;;;;5052793;28;20935;-54
2023/01/16 05:52:51;;;;;;;6.20;2.30;;;3.40;99.90;;;;;;5052907;28;20473;-55
2023/01/16 05:55:18;;;;;;;2.70;1.97;;;3.30;99.90;;;;;;5052599;28;21005;-56
2023/01/16 05:57:45;;;;;;;3.60;2.17;;;3.30;99.90;;;;;;5052425;28;20540;-54
2023/01/16 06:00:15;;;;;;;2.40;2.03;;;3.40;99.90;;;;;;5052903;28;20468;-54
2023/01/16 06:02:42;;;;;;;5.03;1.97;;;3.30;99.90;;;;;;5052807;28;20888;-54
2023/01/16 06:05:10;;;;;;;3.00;2.30;;;3.20;99.90;;;;;;5052858;28;20456;-54
2023/01/16 06:07:37;;;;;;;2.93;1.90;;;3.30;99.90;;;;;;5052443;28;21028;-54
2023/01/16 06:10:05;;;;;;;2.87;2.00;;;3.30;99.90;;;;;;5052733;28;20456;-54
2023/01/16 06:12:33;;;;;;;7.30;2.10;;;3.40;99.90;;;;;;5053309;28;20459;-55
2023/01/16 06:15:00;;;;;;;3.93;2.23;;;3.40;99.90;;;;;;5056048;28;20936;-54
2023/01/16 06:17:29;;;;;;;3.57;2.03;;;3.50;99.90;;;;;;5056314;28;20532;-54
2023/01/16 06:19:57;;;;;;;2.27;2.07;;;3.50;99.90;;;;;;5056586;28;20449;-54
2023/01/16 06:22:25;;;;;;;2.23;2.07;;;3.60;99.90;;;;;;5055695;28;20847;-54
2023/01/16 06:24:52;;;;;;;6.13;2.20;;;3.60;99.90;;;;;;5056033;28;20465;-55
2023/01/16 06:27:19;;;;;;;5.53;2.90;;;3.60;99.90;;;;;;5055688;28;20477;-54
2023/01/16 06:29:46;;;;;;;8.20;2.73;;;3.70;99.90;;;;;;5055842;28;20452;-54
2023/01/16 06:32:15;;;;;;;2.00;1.80;;;3.70;99.90;;;;;;5055896;28;20445;-54
2023/01/16 06:34:44;;;;;;;2.30;2.10;;;3.70;99.90;;;;;;5055548;28;20534;-56
2023/01/16 06:37:12;;;;;;;3.53;1.90;;;3.80;99.90;;;;;;5055486;28;20958;-55
2023/01/16 06:39:39;;;;;;;3.90;2.63;;;3.80;99.90;;;;;;5055685;28;20445;-55
2023/01/16 06:42:06;;;;;;;2.60;2.40;;;3.90;99.90;;;;;;5055669;28;20540;-55
2023/01/16 06:44:33;;;;;;;1.77;1.67;;;3.90;99.90;;;;;;5055405;28;20476;-55
2023/01/16 06:47:01;;;;;;;3.53;2.30;;;3.90;99.90;;;;;;5055366;28;20485;-56
2023/01/16 06:49:29;;;;;;;2.60;2.40;;;3.80;99.90;;;;;;5055215;28;20927;-53
2023/01/16 06:51:59;;;;;;;3.30;2.60;;;3.80;99.90;;;;;;5055276;28;20452;-54
2023/01/16 06:54:26;;;;;;;5.30;2.40;;;3.90;99.90;;;;;;5054665;28;20987;-55
2023/01/16 06:56:54;;;;;;;2.40;1.93;;;3.90;99.90;;;;;;5055120;28;20960;-55
2023/01/16 06:59:21;;;;;;;2.50;2.27;;;3.90;99.90;;;;;;5054893;28;20457;-55
2023/01/16 07:01:48;;;;;;;2.63;2.00;;;3.90;99.90;;;;;;5055141;28;20791;-55
2023/01/16 07:04:15;;;;;;;2.63;2.43;;;3.90;99.90;;;;;;5054786;28;20493;-56
2023/01/16 07:06:43;;;;;;;2.30;2.20;;;3.90;99.90;;;;;;5054807;28;20998;-53
2023/01/16 07:09:12;;;;;;;2.43;2.20;;;3.90;99.90;;;;;;5055093;28;20800;-54
2023/01/16 07:11:39;;;;;;;2.00;1.80;;;3.90;99.90;;;;;;5054867;28;20527;-53
2023/01/16 07:22:38;;;;;;;2.00;1.90;;;3.90;99.90;;;;;;5054478;28;20424;-56
2023/01/16 07:25:12;;;;;;;4.30;2.00;;;3.80;99.90;;;;;;5054196;28;20517;-54
2023/01/16 07:27:40;;;;;;;3.67;2.03;;;3.90;99.90;;;;;;5054670;28;20975;-55
2023/01/16 07:30:08;;;;;;;3.90;2.20;;;3.90;99.90;;;;;;5054724;28;20851;-54
2023/01/16 07:32:36;;;;;;;4.77;2.20;;;3.90;99.90;;;;;;5054687;28;20445;-54
2023/01/16 07:35:03;;;;;;;2.93;2.60;;;3.90;99.90;;;;;;5054199;28;20452;-55
2023/01/16 07:37:30;;;;;;;2.00;1.90;;;3.90;99.90;;;;;;5054536;28;20441;-54
2023/01/16 07:39:57;;;;;;;3.00;2.30;;;3.90;99.90;;;;;;5054520;28;20813;-54
2023/01/16 07:42:26;;;;;;;3.17;2.33;;;3.90;99.90;;;;;;5054438;28;20520;-54
2023/01/16 07:44:53;;;;;;;4.60;2.33;;;4.00;99.90;;;;;;5053961;28;20564;-54
2023/01/16 07:47:20;;;;;;;3.17;2.13;;;4.00;99.90;;;;;;5054089;28;20487;-53
2023/01/16 07:49:47;;;;;;;2.33;2.13;;;4.10;99.90;;;;;;5053894;28;20445;-54
2023/01/16 07:52:14;;;;;;;2.53;2.33;;;4.10;99.90;;;;;;5053774;28;20463;-53
2023/01/16 07:54:41;;;;;;;2.37;2.20;;;4.20;99.90;;;;;;5053355;28;20491;-53
2023/01/16 07:57:08;;;;;;;2.23;2.07;;;4.20;99.90;;;;;;5054049;28;20445;-55
2023/01/16 07:59:37;;;;;;;2.40;2.20;;;4.20;99.90;;;;;;5053801;28;20449;-54
2023/01/16 08:02:04;;;;;;;3.03;2.40;;;4.20;99.90;;;;;;5053837;28;20452;-53
2023/01/16 08:04:32;;;;;;;2.60;2.40;;;4.20;99.90;;;;;;5053674;28;20471;-53
2023/01/16 08:06:59;;;;;;;4.23;2.90;;;4.30;99.90;;;;;;5053840;28;20485;-53
2023/01/16 08:09:26;;;;;;;2.53;2.33;;;4.30;99.90;;;;;;5053747;28;20481;-55
2023/01/16 08:11:53;;;;;;;5.40;2.60;;;4.30;99.90;;;;;;5053645;28;20449;-53
2023/01/16 08:14:20;;;;;;;2.77;2.37;;;4.30;99.90;;;;;;5053121;28;20469;-53
2023/01/16 08:16:49;;;;;;;6.83;2.20;;;4.40;99.90;;;;;;5053397;28;20957;-54
2023/01/16 08:19:16;;;;;;;4.73;2.80;;;4.40;99.90;;;;;;5053318;28;20460;-54
2023/01/16 08:21:43;;;;;;;3.73;2.63;;;4.40;99.90;;;;;;5053276;28;20479;-54
2023/01/16 08:24:13;;;;;;;2.40;2.20;;;4.50;99.90;;;;;;5053481;28;20473;-53
2023/01/16 08:26:40;;;;;;;2.30;2.10;;;4.50;99.90;;;;;;5053057;28;20543;-53
2023/01/16 08:29:08;;;;;;;3.60;2.57;;;4.60;99.90;;;;;;5053290;28;20540;-53
2023/01/16 08:31:35;;;;;;;3.50;2.03;;;4.70;99.90;;;;;;5053143;28;20445;-53
2023/01/16 08:34:04;;;;;;;4.90;2.30;;;4.60;99.90;;;;;;5052992;28;20656;-53
2023/01/16 08:36:31;;;;;;;2.37;2.23;;;4.60;99.90;;;;;;5051979;28;20453;-53
2023/01/16 08:38:58;;;;;;;3.00;2.30;;;4.60;99.90;;;;;;5053036;28;20548;-54
2023/01/16 08:52:29;;;;;;;2.10;1.90;;;4.80;99.90;;;;;;5030004;28;20494;-54
2023/01/16 08:54:58;;;;;;;4.03;2.00;;;4.80;99.90;;;;;;5052648;28;20477;-54
2023/01/16 08:57:25;;;;;;;2.13;1.73;;;4.80;99.90;;;;;;5052863;28;20450;-54
2023/01/16 08:59:52;;;;;;;4.97;1.97;;;4.80;99.90;;;;;;5053159;28;20445;-53
2023/01/16 09:02:20;;;;;;;2.10;1.90;;;4.90;99.90;;;;;;5053007;28;20441;-54
2023/01/16 09:04:48;;;;;;;3.00;1.83;;;4.90;99.90;;;;;;5052670;28;20828;-55
2023/01/16 09:07:16;;;;;;;3.07;1.80;;;4.90;99.90;;;;;;5052759;28;20485;-54
2023/01/16 09:09:43;;;;;;;2.03;1.60;;;4.90;99.90;;;;;;5052708;28;20462;-53
2023/01/16 09:14:56;;;;;;;2.00;1.90;;;5.00;99.90;;;;;;5052729;28;20409;-54
2023/01/16 09:17:24;;;;;;;1.90;1.80;;;5.00;99.90;;;;;;5053140;28;20457;-54
2023/01/16 09:19:53;;;;;;;2.73;1.47;;;5.00;99.90;;;;;;5052709;28;20449;-54
2023/01/16 09:22:21;;;;;;;2.10;1.90;;;5.00;99.90;;;;;;5053049;28;20548;-53
2023/01/16 09:24:48;;;;;;;1.97;1.80;;;5.10;99.90;;;;;;5052997;28;20821;-55
2023/01/16 09:27:18;;;;;;;3.20;1.70;;;5.10;99.90;;;;;;5052917;28;20575;-54
2023/01/16 09:29:45;;;;;;;2.13;1.90;;;5.20;99.90;;;;;;5052451;28;20454;-54
2023/01/16 09:32:12;;;;;;;2.10;1.90;;;5.20;99.90;;;;;;5052996;28;20452;-53
2023/01/16 09:34:41;;;;;;;2.17;2.00;;;5.20;99.90;;;;;;5052423;28;20978;-54
2023/01/16 09:37:10;;;;;;;1.80;1.53;;;5.20;99.90;;;;;;5052862;28;20452;-54
2023/01/16 09:39:37;;;;;;;4.80;2.00;;;5.30;99.90;;;;;;5052522;28;20449;-54
2023/01/16 09:45:21;;;;;;;1.60;1.50;;;5.40;99.90;;;;;;5052600;28;20891;-55
2023/01/16 09:47:52;;;;;;;1.90;1.60;;;5.50;99.90;;;;;;5055224;28;20481;-54
2023/01/16 09:50:28;;;;;;;2.27;1.60;;;5.60;99.90;;;;;;5056510;28;20440;-54
2023/01/16 09:58:37;;;;;;;2.93;1.97;;;5.70;99.90;;;;;;5056104;28;20766;-55
2023/01/16 10:01:06;;;;;;;4.03;1.70;;;5.70;99.90;;;;;;5056371;28;20529;-53
2023/01/16 10:03:33;;;;;;;2.00;1.90;;;5.60;99.90;;;;;;5056159;28;20461;-54
2023/01/16 10:06:13;;;;;;;2.33;1.93;;;5.60;99.90;;;;;;5055857;28;20528;-54
2023/01/16 10:08:50;;;;;;;2.47;1.90;;;5.70;99.90;;;;;;5056265;28;20508;-54
2023/01/16 10:11:27;;;;;;;3.90;1.60;;;5.70;99.90;;;;;;5055892;28;20433;-54
2023/01/16 10:14:20;;;;;;;1.80;1.40;;;5.70;99.90;;;;;;5056163;28;20460;-55
2023/01/16 10:16:58;;;;;;;2.57;1.87;;;5.80;99.90;;;;;;5055748;28;20517;-54
2023/01/16 10:19:45;;;;;;;1.80;1.70;;;5.80;99.90;;;;;;5055481;28;20508;-54
2023/01/16 10:22:30;;;;;;;1.70;1.60;;;5.80;99.90;;;;;;5055423;28;20463;-54
2023/01/16 10:25:14;;;;;;;2.70;1.40;;;5.90;99.90;;;;;;5055338;28;20536;-53
2023/01/16 10:27:53;;;;;;;1.47;1.37;;;5.90;99.80;;;;;;5055517;28;20461;-53
2023/01/16 10:30:25;;;;;;;1.80;1.70;;;5.90;99.80;;;;;;5055452;28;20487;-54
2023/01/16 10:32:58;;;;;;;1.97;1.67;;;6.00;99.40;;;;;;5055664;28;20493;-54
2023/01/16 10:35:30;;;;;;;2.30;1.70;;;6.00;99.10;;;;;;5055355;28;20444;-54
2023/01/16 10:38:01;;;;;;;1.60;1.50;;;6.10;99.00;;;;;;5055410;28;20454;-54
2023/01/16 10:40:31;;;;;;;1.53;1.43;;;6.10;99.20;;;;;;5055537;28;20486;-53
2023/01/16 10:51:35;;;;;;;1.50;1.30;;;6.10;99.60;;;;;;5044648;28;20429;-53
2023/01/16 10:54:04;;;;;;;1.80;1.70;;;6.20;99.80;;;;;;5054822;28;20493;-53
2023/01/16 10:56:34;;;;;;;1.67;1.57;;;6.30;99.90;;;;;;5055572;28;20449;-53
2023/01/16 10:59:01;;;;;;;1.70;1.50;;;6.30;99.90;;;;;;5054386;28;20457;-53
2023/01/16 11:01:29;;;;;;;1.60;1.50;;;6.40;99.90;;;;;;5054997;28;20793;-53
2023/01/16 11:04:00;;;;;;;2.20;2.00;;;6.40;99.90;;;;;;5054757;28;20469;-53
2023/01/16 11:06:28;;;;;;;1.67;1.33;;;6.40;99.90;;;;;;5055079;28;20430;-53
2023/01/16 11:09:00;;;;;;;1.60;1.50;;;6.40;99.90;;;;;;5054372;28;20453;-53
2023/01/16 11:20:09;;;;;;;2.17;1.97;;;6.50;99.90;;;;;;5054633;28;20412;-53
2023/01/16 11:22:40;;;;;;;1.73;1.63;;;6.50;99.90;;;;;;5054668;28;20540;-53
2023/01/16 11:25:17;;;;;;;1.93;1.70;;;6.60;99.90;;;;;;5054452;28;20903;-53
2023/01/16 11:27:45;;;;;;;1.63;1.37;;;6.60;99.90;;;;;;5054396;28;20465;-54
2023/01/16 11:30:21;;;;;;;1.70;1.60;;;6.60;99.90;;;;;;5054605;28;20449;-53
2023/01/16 11:32:50;;;;;;;1.50;1.40;;;6.60;99.90;;;;;;5054457;28;20832;-53
2023/01/16 11:35:19;;;;;;;1.63;1.30;;;6.60;99.90;;;;;;5054514;28;20848;-53
2023/01/16 11:37:50;;;;;;;1.53;1.43;;;6.60;99.90;;;;;;5054190;28;20460;-53
2023/01/16 11:40:21;;;;;;;2.10;1.90;;;6.60;99.90;;;;;;5054214;28;20915;-54
2023/01/16 11:46:07;;;;;;;2.17;1.63;;;6.50;99.90;;;;;;5054076;28;20425;-53
2023/01/16 11:48:37;;;;;;;1.67;1.40;;;6.50;99.90;;;;;;5054220;28;20954;-53
2023/01/16 11:51:07;;;;;;;1.57;1.47;;;6.60;99.90;;;;;;5054100;28;20448;-53
2023/01/16 11:53:36;;;;;;;2.73;1.70;;;6.50;99.90;;;;;;5053750;28;20484;-53
2023/01/16 11:56:26;;;;;;;4.43;4.03;;;6.60;99.90;;;;;;5053640;28;20466;-53
2023/01/16 11:59:07;;;;;;;2.63;1.40;;;6.70;99.90;;;;;;5043242;28;20464;-54
2023/01/16 12:05:53;;;;;;;2.50;1.50;;;6.70;99.90;;;;;;5053720;28;20453;-54
2023/01/16 12:07:36;;;;;;;1.50;1.40;;;6.70;99.90;;;;;;5052619;28;20483;-55
2023/01/16 12:10:10;;;;;;;1.50;1.40;;;6.80;99.90;;;;;;5052853;28;20429;-54
2023/01/16 12:15:42;;;;;;;1.27;1.17;;;6.80;99.90;;;;;;5053524;28;20455;-53
2023/01/16 12:18:19;;;;;;;2.70;1.50;;;6.80;99.90;;;;;;5053154;28;20765;-53
2023/01/16 12:20:54;;;;;;;1.93;1.83;;;6.90;99.90;;;;;;5053699;28;20436;-53
2023/01/16 12:23:45;;;;;;;1.37;1.27;;;6.90;99.90;;;;;;5053349;28;20472;-54
2023/01/16 12:26:21;;;;;;;1.50;1.40;;;7.00;99.90;;;;;;5053313;28;20430;-55
2023/01/16 12:29:01;;;;;;;1.43;1.33;;;6.90;99.90;;;;;;5053562;28;20822;-53
2023/01/16 12:31:50;;;;;;;2.47;1.60;;;6.90;99.90;;;;;;5053457;28;20548;-53
2023/01/16 12:34:42;;;;;;;1.50;1.40;;;6.90;99.90;;;;;;5053302;28;20996;-53
2023/01/16 12:37:22;;;;;;;1.40;1.30;;;6.90;99.90;;;;;;5053441;28;20479;-53
2023/01/16 12:39:56;;;;;;;1.53;1.43;;;6.90;99.90;;;;;;5053653;28;20503;-54
2023/01/16 12:45:43;;;;;;;1.40;1.30;;;7.00;99.90;;;;;;5053074;28;20409;-55
2023/01/16 12:48:30;;;;;;;1.90;1.30;;;7.10;99.90;;;;;;5052911;28;20465;-54
2023/01/16 12:51:25;;;;;;;1.47;1.37;;;7.10;99.90;;;;;;5052719;28;20442;-53
2023/01/16 12:54:39;;;;;;;1.80;1.50;;;7.20;99.90;;;;;;5051209;28;20571;-54
2023/01/16 12:57:42;;;;;;;1.40;1.30;;;7.30;99.90;;;;;;5052909;28;20485;-53
2023/01/16 13:00:15;;;;;;;1.50;1.40;;;7.30;99.90;;;;;;5016814;28;20490;-53
2023/01/16 13:02:49;;;;;;;2.03;1.83;;;7.40;99.90;;;;;;5052489;28;20552;-56
2023/01/16 13:05:21;;;;;;;1.60;1.50;;;7.40;99.90;;;;;;5052877;28;20480;-54
2023/01/16 13:07:56;;;;;;;1.73;1.47;;;7.40;99.90;;;;;;5052680;28;20465;-54
2023/01/16 13:13:25;;;;;;;1.40;1.30;;;7.40;99.90;;;;;;5052689;28;20448;-54
2023/01/16 13:16:06;;;;;;;1.23;1.13;;;7.50;99.90;;;;;;5052680;28;20429;-55
2023/01/16 13:18:39;;;;;;;1.30;1.20;;;7.50;99.90;;;;;;5052779;28;20441;-54
2023/01/16 13:21:15;;;;;;;1.30;1.20;;;7.40;99.90;;;;;;5053224;28;20436;-54
2023/01/16 13:23:49;;;;;;;1.30;1.20;;;7.50;99.90;;;;;;5056839;28;20473;-54
2023/01/16 13:26:19;;;;;;;1.40;1.30;;;7.50;99.90;;;;;;5057085;28;20516;-54
2023/01/16 13:28:54;;;;;;;1.63;1.37;;;7.70;99.90;;;;;;5056838;28;20492;-54
2023/01/16 13:31:28;;;;;;;1.23;1.13;;;7.80;99.90;;;;;;5057005;28;20792;-54
2023/01/16 13:34:00;;;;;;;1.40;1.30;;;8.00;99.90;;;;;;5056447;28;20469;-54
2023/01/16 13:37:04;;;;;;;1.40;1.30;;;8.00;99.90;;;;;;5056480;28;20433;-54
2023/01/16 13:39:52;;;;;;;1.37;1.27;;;8.30;99.90;;;;;;5054443;28;20456;-55
2023/01/16 13:42:21;;;;;;;1.33;1.20;;;8.70;99.90;;;;;;5056716;28;20513;-55
2023/01/16 13:47:40;;;;;;;1.33;1.23;;;9.10;99.90;;;;;;5056194;28;20974;-54
2023/01/16 13:50:16;;;;;;;1.90;1.60;;;8.80;99.90;;;;;;5056321;28;20453;-55
2023/01/16 13:52:44;;;;;;;1.50;1.30;;;8.40;99.90;;;;;;5056157;28;20930;-54
2023/01/16 13:55:28;;;;;;;1.73;1.40;;;8.30;99.90;;;;;;5055977;28;20505;-54
2023/01/16 13:57:56;;;;;;;1.53;1.37;;;8.30;99.90;;;;;;5056526;28;20454;-54
2023/01/16 14:00:24;;;;;;;1.50;1.40;;;8.20;99.90;;;;;;5056030;28;20453;-55
2023/01/16 14:03:21;;;;;;;1.43;1.20;;;8.00;99.90;;;;;;5056165;28;20464;-52
2023/01/16 14:05:51;;;;;;;1.20;1.10;;;8.00;99.90;;;;;;5049506;28;20986;-53
2023/01/16 14:09:04;;;;;;;2.90;1.37;;;8.00;99.90;;;;;;5056034;28;20559;-51
2023/01/16 14:11:59;;;;;;;1.30;1.20;;;7.90;99.90;;;;;;5055733;28;20428;-51
2023/01/16 14:18:09;;;;;;;1.20;1.10;;;7.90;99.90;;;;;;5055673;28;20769;-52
2023/01/16 14:20:43;;;;;;;1.20;1.10;;;7.90;99.90;;;;;;5045551;28;20535;-53
2023/01/16 14:26:06;;;;;;;1.70;1.43;;;7.70;99.90;;;;;;5055660;28;20420;-52
2023/01/16 14:28:35;;;;;;;1.73;1.33;;;7.60;99.90;;;;;;5056076;28;20530;-52
2023/01/16 14:31:03;;;;;;;1.33;1.23;;;7.50;99.90;;;;;;5055292;28;20932;-52
2023/01/16 14:33:30;;;;;;;2.27;1.10;;;7.30;99.90;;;;;;5054709;28;20913;-52
2023/01/16 14:35:59;;;;;;;1.40;1.30;;;7.20;99.90;;;;;;5055203;28;20454;-52